createdAt,value
2022-10-06T00:01:38.670Z,14.28
2022-10-06T00:04:23.369Z,14.06
2022-10-06T00:07:08.260Z,13.95
2022-10-06T00:09:53.193Z,13.86
2022-10-06T00:12:39.943Z,13.81
2022-10-06T00:15:29.170Z,13.86
2022-10-06T00:18:14.048Z,13.92
2022-10-06T00:21:01.288Z,13.93
2022-10-06T00:23:46.427Z,13.95
2022-10-06T00:26:32.331Z,13.95
2022-10-06T00:29:18.648Z,13.98
2022-10-06T00:32:03.498Z,14.01
2022-10-06T00:34:48.224Z,14.06
2022-10-06T00:37:37.923Z,14.09
2022-10-06T00:40:23.573Z,14.11
2022-10-06T00:43:39.839Z,14.12
2022-10-06T00:46:45.026Z,14.15
2022-10-06T00:49:38.035Z,14.19
2022-10-06T00:52:27.240Z,14.18
2022-10-06T00:55:12.606Z,14.17
2022-10-06T00:57:59.284Z,14.23
2022-10-06T01:00:45.208Z,14.23
2022-10-06T01:03:33.086Z,14.26
2022-10-06T01:06:17.988Z,14.27
2022-10-06T01:09:03.048Z,14.30
2022-10-06T01:11:50.919Z,14.30
2022-10-06T01:14:39.062Z,14.27
2022-10-06T01:17:41.681Z,14.33
2022-10-06T01:20:27.422Z,14.31
2022-10-06T01:23:13.190Z,14.27
2022-10-06T01:26:00.816Z,14.26
2022-10-06T01:28:47.062Z,14.27
2022-10-06T01:31:31.908Z,14.26
2022-10-06T01:34:16.894Z,14.20
2022-10-06T01:37:01.611Z,14.19
2022-10-06T01:39:46.391Z,14.12
2022-10-06T01:42:33.411Z,14.09
2022-10-06T01:45:18.568Z,14.05
2022-10-06T01:48:04.291Z,14.01
2022-10-06T01:50:49.619Z,13.94
2022-10-06T01:53:34.720Z,13.88
2022-10-06T01:56:20.965Z,13.82
2022-10-06T01:59:05.903Z,13.81
2022-10-06T02:01:51.856Z,13.75
2022-10-06T02:04:36.868Z,13.67
2022-10-06T02:07:21.852Z,13.65
2022-10-06T02:10:06.888Z,13.58
2022-10-06T02:12:53.086Z,13.53
2022-10-06T02:15:38.311Z,13.48
2022-10-06T02:18:23.840Z,13.48
2022-10-06T02:21:22.699Z,13.45
2022-10-06T02:24:07.656Z,13.39
2022-10-06T02:26:53.145Z,13.35
2022-10-06T02:29:37.894Z,13.31
2022-10-06T02:32:23.338Z,13.29
2022-10-06T02:35:08.884Z,13.23
2022-10-06T02:37:54.043Z,13.19
2022-10-06T02:40:38.975Z,13.15
2022-10-06T02:43:23.774Z,13.11
2022-10-06T02:46:12.188Z,13.11
2022-10-06T02:48:57.457Z,13.11
2022-10-06T02:51:42.457Z,13.10
2022-10-06T02:54:27.397Z,13.05
2022-10-06T02:57:14.757Z,13.04
2022-10-06T03:00:00.283Z,13.00
2022-10-06T03:02:45.256Z,12.90
2022-10-06T03:05:30.488Z,12.84
2022-10-06T03:08:15.527Z,12.88
2022-10-06T03:11:02.364Z,12.82
2022-10-06T03:13:49.357Z,12.80
2022-10-06T03:16:39.962Z,12.76
2022-10-06T03:19:25.287Z,12.73
2022-10-06T03:22:10.502Z,12.63
2022-10-06T03:24:55.747Z,12.51
2022-10-06T03:27:40.798Z,12.58
2022-10-06T03:30:26.237Z,12.57
2022-10-06T03:33:11.279Z,12.54
2022-10-06T03:36:26.097Z,12.49
2022-10-06T03:39:11.173Z,12.48
2022-10-06T03:41:56.741Z,12.41
2022-10-06T03:44:41.871Z,12.43
2022-10-06T03:47:29.803Z,12.37
2022-10-06T03:50:14.915Z,12.38
2022-10-06T03:52:59.903Z,12.28
2022-10-06T03:55:45.118Z,12.21
2022-10-06T03:58:31.070Z,12.17
2022-10-06T04:01:25.696Z,12.12
2022-10-06T04:04:11.971Z,12.12
2022-10-06T04:06:56.985Z,12.01
2022-10-06T04:09:41.764Z,11.84
2022-10-06T04:12:26.552Z,11.86
2022-10-06T04:15:11.549Z,11.79
2022-10-06T04:17:56.343Z,11.69
2022-10-06T04:20:41.737Z,11.77
2022-10-06T04:23:26.751Z,11.72
2022-10-06T04:26:14.651Z,11.79
2022-10-06T04:29:00.640Z,11.85
2022-10-06T04:31:45.987Z,11.87
2022-10-06T04:34:31.066Z,11.94
2022-10-06T04:37:15.834Z,11.84
2022-10-06T04:40:00.982Z,11.85
2022-10-06T04:42:46.171Z,11.85
2022-10-06T04:45:31.127Z,11.78
2022-10-06T04:48:15.986Z,11.83
2022-10-06T04:51:03.849Z,11.77
2022-10-06T04:53:48.848Z,11.75
2022-10-06T04:56:33.977Z,11.74
2022-10-06T04:59:18.901Z,11.70
2022-10-06T05:02:03.731Z,11.61
2022-10-06T05:04:48.505Z,11.69
2022-10-06T05:07:33.288Z,11.66
2022-10-06T05:10:18.066Z,11.56
2022-10-06T05:13:03.724Z,11.51
2022-10-06T05:15:56.464Z,11.49
2022-10-06T05:18:42.432Z,11.47
2022-10-06T05:21:30.203Z,11.44
2022-10-06T05:24:15.334Z,11.36
2022-10-06T05:27:02.750Z,11.33
2022-10-06T05:29:47.643Z,11.31
2022-10-06T05:32:35.937Z,11.29
2022-10-06T05:35:21.527Z,11.22
2022-10-06T05:38:06.645Z,11.19
2022-10-06T05:41:00.317Z,11.12
2022-10-06T05:43:45.526Z,11.15
2022-10-06T05:46:33.046Z,11.09
2022-10-06T05:49:18.001Z,11.12
2022-10-06T05:52:02.831Z,11.08
2022-10-06T05:54:47.804Z,11.05
2022-10-06T05:57:32.665Z,11.07
2022-10-06T06:00:17.436Z,11.00
2022-10-06T06:03:02.375Z,10.97
2022-10-06T06:05:47.113Z,10.96
2022-10-06T06:08:32.397Z,10.95
2022-10-06T06:11:17.823Z,10.96
2022-10-06T06:14:08.616Z,11.01
2022-10-06T06:16:53.605Z,11.02
2022-10-06T06:19:38.457Z,11.03
2022-10-06T06:22:23.962Z,11.12
2022-10-06T06:25:09.343Z,11.13
2022-10-06T06:27:55.735Z,11.18
2022-10-06T06:30:40.805Z,11.19
2022-10-06T06:33:25.568Z,11.22
2022-10-06T06:36:17.876Z,11.24
2022-10-06T06:39:05.714Z,11.25
2022-10-06T06:41:50.914Z,11.26
2022-10-06T06:44:35.810Z,11.28
2022-10-06T06:47:23.120Z,11.25
2022-10-06T06:50:11.203Z,11.29
2022-10-06T06:52:55.933Z,11.26
2022-10-06T06:55:49.828Z,11.32
2022-10-06T06:58:35.492Z,11.35
2022-10-06T07:01:22.745Z,11.31
2022-10-06T07:04:07.532Z,11.31
2022-10-06T07:06:58.871Z,11.34
2022-10-06T07:09:43.785Z,11.43
2022-10-06T07:12:28.626Z,11.51
2022-10-06T07:15:32.112Z,11.58
2022-10-06T07:18:36.016Z,11.62
2022-10-06T07:21:39.940Z,11.68
2022-10-06T07:24:43.550Z,11.79
2022-10-06T07:27:29.816Z,11.89
2022-10-06T07:30:27.094Z,11.88
2022-10-06T07:33:11.953Z,11.98
2022-10-06T07:35:56.747Z,12.04
2022-10-06T07:38:41.635Z,12.12
2022-10-06T07:41:26.608Z,12.17
2022-10-06T07:44:11.409Z,12.28
2022-10-06T07:46:56.347Z,12.34
2022-10-06T07:49:42.871Z,12.44
2022-10-06T07:52:31.018Z,12.54
2022-10-06T07:55:18.107Z,12.62
2022-10-06T07:58:03.223Z,12.70
2022-10-06T08:00:48.779Z,12.82
2022-10-06T08:03:34.540Z,12.87
2022-10-06T08:06:19.771Z,12.93
2022-10-06T08:09:05.874Z,12.97
2022-10-06T08:11:50.918Z,13.09
2022-10-06T08:14:35.765Z,13.22
2022-10-06T08:17:20.668Z,13.27
2022-10-06T08:20:08.116Z,13.35
2022-10-06T08:22:53.784Z,13.45
2022-10-06T08:25:43.185Z,13.56
2022-10-06T08:28:30.298Z,13.64
2022-10-06T08:31:17.512Z,13.66
2022-10-06T08:34:02.510Z,13.70
2022-10-06T08:37:08.615Z,13.75
2022-10-06T08:39:56.306Z,13.81
2022-10-06T08:42:44.550Z,13.93
2022-10-06T08:45:38.681Z,14.06
2022-10-06T08:48:26.720Z,14.22
2022-10-06T08:51:48.792Z,14.29
2022-10-06T08:54:45.134Z,14.45
2022-10-06T08:57:50.582Z,14.52
2022-10-06T09:00:37.090Z,14.67
2022-10-06T09:03:27.359Z,14.72
2022-10-06T09:06:23.052Z,16.89
2022-10-06T09:09:43.691Z,18.13
2022-10-06T09:12:43.833Z,18.38
2022-10-06T09:15:38.111Z,19.48
2022-10-06T09:18:49.812Z,19.29
2022-10-06T09:21:46.083Z,20.25
2022-10-06T09:24:40.475Z,19.42
2022-10-06T09:27:36.543Z,18.31
2022-10-06T09:30:22.518Z,17.99
2022-10-06T09:33:17.833Z,18.40
2022-10-06T09:36:09.652Z,19.31
2022-10-06T09:38:56.850Z,18.50
2022-10-06T09:41:45.607Z,18.25
2022-10-06T09:44:40.461Z,19.07
2022-10-06T09:47:28.583Z,18.11
2022-10-06T09:50:27.935Z,17.74
2022-10-06T09:53:16.060Z,16.85
2022-10-06T09:56:04.927Z,16.75
2022-10-06T09:58:56.328Z,16.94
2022-10-06T10:01:41.998Z,17.21
2022-10-06T10:04:32.691Z,17.89
2022-10-06T10:07:26.940Z,18.80
2022-10-06T10:10:23.775Z,17.22
2022-10-06T10:13:24.703Z,18.35
2022-10-06T10:16:16.339Z,18.40
2022-10-06T10:19:05.516Z,19.05
2022-10-06T10:21:52.036Z,18.95
2022-10-06T10:24:58.710Z,17.80
2022-10-06T10:28:03.544Z,19.10
2022-10-06T10:31:04.833Z,20.44
2022-10-06T10:34:24.427Z,21.06
2022-10-06T10:37:42.857Z,20.19
2022-10-06T10:40:38.808Z,19.73
2022-10-06T10:43:42.155Z,20.08
2022-10-06T10:46:44.626Z,20.35
2022-10-06T10:49:30.212Z,19.22
2022-10-06T10:52:20.365Z,19.25
2022-10-06T10:55:19.611Z,17.77
2022-10-06T10:58:20.073Z,17.53
2022-10-06T11:01:26.804Z,18.49
2022-10-06T11:04:13.727Z,19.91
2022-10-06T11:07:23.281Z,19.52
2022-10-06T11:10:19.759Z,18.83
2022-10-06T11:13:22.896Z,19.31
2022-10-06T11:16:40.618Z,19.83
2022-10-06T11:19:44.027Z,19.36
2022-10-06T11:22:50.450Z,18.40
2022-10-06T11:25:48.040Z,18.98
2022-10-06T11:28:44.691Z,20.17
2022-10-06T11:31:50.140Z,20.37
2022-10-06T11:34:35.351Z,20.86
2022-10-06T11:37:30.790Z,21.61
2022-10-06T11:40:39.737Z,18.53
2022-10-06T11:43:37.930Z,18.10
2022-10-06T11:46:33.666Z,17.69
2022-10-06T11:49:28.978Z,17.59
2022-10-06T11:52:13.849Z,17.61
2022-10-06T11:55:14.616Z,17.65
2022-10-06T11:58:23.492Z,17.57
2022-10-06T12:01:35.040Z,17.57
2022-10-06T12:04:24.552Z,17.53
2022-10-06T12:07:10.739Z,17.60
2022-10-06T12:10:27.567Z,17.71
2022-10-06T12:14:26.518Z,17.75
2022-10-06T12:20:01.892Z,17.47
2022-10-06T12:23:05.522Z,17.56
2022-10-06T12:26:00.324Z,17.27
2022-10-06T12:29:20.285Z,17.53
2022-10-06T12:32:22.005Z,17.40
2022-10-06T12:35:16.733Z,17.38
2022-10-06T12:38:05.263Z,17.37
2022-10-06T12:40:54.350Z,17.58
2022-10-06T12:43:57.102Z,17.45
2022-10-06T12:46:45.158Z,17.47
2022-10-06T12:49:54.179Z,17.52
2022-10-06T12:52:53.745Z,17.65
2022-10-06T12:55:47.861Z,17.75
2022-10-06T12:58:33.906Z,17.53
2022-10-06T13:01:19.054Z,17.66
2022-10-06T13:04:04.194Z,17.71
2022-10-06T13:06:49.764Z,17.56
2022-10-06T13:09:34.748Z,17.71
2022-10-06T13:12:28.820Z,17.91
2022-10-06T13:15:19.891Z,17.79
2022-10-06T13:18:07.636Z,17.82
2022-10-06T13:20:54.508Z,17.82
2022-10-06T13:23:40.044Z,17.82
2022-10-06T13:26:29.237Z,17.69
2022-10-06T13:29:24.049Z,17.73
2022-10-06T13:32:17.955Z,17.97
2022-10-06T13:35:03.241Z,17.97
2022-10-06T13:37:48.448Z,17.85
2022-10-06T13:40:44.184Z,17.72
2022-10-06T13:43:32.594Z,17.70
2022-10-06T13:46:26.677Z,17.78
2022-10-06T13:49:21.230Z,17.81
2022-10-06T13:52:18.891Z,17.83
2022-10-06T13:55:14.165Z,17.88
2022-10-06T13:58:02.118Z,17.79
2022-10-06T14:01:01.005Z,17.95
2022-10-06T14:03:46.641Z,17.79
2022-10-06T14:06:31.438Z,17.88
2022-10-06T14:09:22.350Z,18.16
2022-10-06T14:12:17.931Z,18.10
2022-10-06T14:15:03.083Z,17.88
2022-10-06T14:18:00.447Z,17.93
2022-10-06T14:20:49.465Z,17.85
2022-10-06T14:23:46.906Z,17.51
2022-10-06T14:26:34.250Z,17.55
2022-10-06T14:29:19.391Z,17.72
2022-10-06T14:32:09.648Z,17.91
2022-10-06T14:34:54.503Z,17.91
2022-10-06T14:37:39.588Z,17.87
2022-10-06T14:40:24.357Z,17.80
2022-10-06T14:43:09.960Z,17.81
2022-10-06T14:45:55.596Z,17.71
2022-10-06T14:48:40.523Z,17.68
2022-10-06T14:51:29.318Z,17.52
2022-10-06T14:54:15.887Z,17.54
2022-10-06T14:57:00.659Z,17.44
2022-10-06T14:59:45.484Z,17.49
2022-10-06T15:02:30.452Z,17.50
2022-10-06T15:05:16.159Z,17.57
2022-10-06T15:08:10.554Z,17.56
2022-10-06T15:10:56.006Z,17.48
2022-10-06T15:13:41.293Z,17.44
2022-10-06T15:16:29.106Z,17.48
2022-10-06T15:19:14.431Z,17.30
2022-10-06T15:21:59.803Z,17.29
2022-10-06T15:24:48.664Z,17.20
2022-10-06T15:27:52.453Z,17.05
2022-10-06T15:30:40.771Z,17.02
2022-10-06T15:33:28.798Z,17.10
2022-10-06T15:36:17.234Z,17.00
2022-10-06T15:39:08.642Z,16.95
2022-10-06T15:41:54.207Z,17.02
2022-10-06T15:44:38.951Z,17.01
2022-10-06T15:47:24.648Z,16.97
2022-10-06T15:50:09.944Z,16.84
2022-10-06T15:52:55.193Z,16.72
2022-10-06T15:55:40.523Z,16.62
2022-10-06T15:58:25.645Z,16.55
2022-10-06T16:01:39.168Z,16.49
2022-10-06T16:04:39.132Z,16.37
2022-10-06T16:07:24.429Z,16.29
2022-10-06T16:10:09.104Z,16.21
2022-10-06T16:12:54.034Z,16.08
2022-10-06T16:15:38.942Z,15.95
2022-10-06T16:18:24.076Z,15.96
2022-10-06T16:21:09.095Z,15.83
2022-10-06T16:23:53.924Z,15.84
2022-10-06T16:26:38.979Z,15.79
2022-10-06T16:29:24.233Z,15.71
2022-10-06T16:32:09.573Z,15.56
2022-10-06T16:34:54.536Z,15.44
2022-10-06T16:37:39.304Z,15.34
2022-10-06T16:40:23.975Z,15.25
2022-10-06T16:43:08.775Z,15.10
2022-10-06T16:46:03.088Z,15.04
2022-10-06T16:48:50.154Z,14.92
2022-10-06T16:51:40.413Z,14.83
2022-10-06T16:54:25.477Z,14.69
2022-10-06T16:57:10.710Z,14.54
2022-10-06T16:59:55.427Z,14.55
2022-10-06T17:02:41.161Z,14.40
2022-10-06T17:05:26.363Z,14.29
2022-10-06T17:08:11.384Z,14.21
2022-10-06T17:11:08.807Z,14.10
2022-10-06T17:13:57.625Z,13.99
2022-10-06T17:16:44.820Z,13.86
2022-10-06T17:19:30.448Z,13.78
2022-10-06T17:22:15.672Z,13.68
2022-10-06T17:25:00.628Z,13.56
2022-10-06T17:27:45.475Z,13.50
2022-10-06T17:30:30.366Z,13.45
2022-10-06T17:33:15.204Z,13.35
2022-10-06T17:36:06.372Z,13.26
2022-10-06T17:38:52.868Z,13.18
2022-10-06T17:41:40.812Z,13.09
2022-10-06T17:44:27.707Z,13.00
2022-10-06T17:47:12.657Z,12.96
2022-10-06T17:49:57.536Z,12.84
2022-10-06T17:52:42.609Z,12.75
2022-10-06T17:55:27.969Z,12.71
2022-10-06T17:58:18.469Z,12.66
2022-10-06T18:01:17.840Z,12.59
2022-10-06T18:04:05.012Z,12.44
2022-10-06T18:06:52.803Z,12.34
2022-10-06T18:09:37.808Z,12.33
2022-10-06T18:12:22.797Z,12.28
2022-10-06T18:15:09.846Z,12.22
2022-10-06T18:17:55.003Z,12.17
2022-10-06T18:20:41.092Z,12.10
2022-10-06T18:23:26.438Z,12.02
2022-10-06T18:26:14.064Z,11.91
2022-10-06T18:28:58.956Z,11.87
2022-10-06T18:31:44.844Z,11.80
2022-10-06T18:37:35.036Z,11.73
2022-10-06T18:40:20.138Z,11.69
2022-10-06T18:43:05.240Z,11.59
2022-10-06T18:46:08.916Z,11.60
2022-10-06T18:48:58.610Z,11.45
2022-10-06T18:51:55.899Z,11.38
2022-10-06T18:54:44.409Z,11.18
2022-10-06T18:57:29.403Z,11.12
2022-10-06T19:00:14.628Z,11.09
2022-10-06T19:02:59.371Z,10.99
2022-10-06T19:05:52.530Z,11.02
2022-10-06T19:08:37.688Z,11.05
2022-10-06T19:11:41.578Z,11.01
2022-10-06T19:14:34.525Z,11.00
2022-10-06T19:17:22.655Z,10.88
2022-10-06T19:20:10.630Z,10.79
2022-10-06T19:22:55.523Z,10.78
2022-10-06T19:25:40.327Z,10.71
2022-10-06T19:28:30.859Z,10.69
2022-10-06T19:31:19.856Z,10.66
2022-10-06T19:34:08.226Z,10.61
2022-10-06T19:36:53.291Z,10.64
2022-10-06T19:39:42.649Z,10.60
2022-10-06T19:42:46.712Z,10.49
2022-10-06T19:45:31.709Z,10.40
2022-10-06T19:48:16.680Z,10.36
2022-10-06T19:51:12.099Z,10.36
2022-10-06T19:53:57.219Z,10.44
2022-10-06T19:56:42.077Z,10.47
2022-10-06T19:59:27.123Z,10.35
2022-10-06T20:02:12.027Z,10.31
2022-10-06T20:04:56.967Z,10.26
2022-10-06T20:07:44.199Z,10.24
2022-10-06T20:10:29.482Z,10.15
2022-10-06T20:13:14.969Z,10.15
2022-10-06T20:16:04.911Z,10.05
2022-10-06T20:18:50.461Z,10.05
2022-10-06T20:21:35.711Z,10.10
2022-10-06T20:24:24.649Z,10.08
2022-10-06T20:27:10.087Z,10.16
2022-10-06T20:29:56.832Z,10.17
2022-10-06T20:32:41.806Z,10.11
2022-10-06T20:35:26.958Z,10.01
2022-10-06T20:38:11.804Z,9.96
2022-10-06T20:40:56.680Z,9.94
2022-10-06T20:43:43.045Z,9.89
2022-10-06T20:46:31.265Z,9.83
2022-10-06T20:49:19.216Z,9.80
2022-10-06T20:52:05.111Z,9.80
2022-10-06T20:54:50.466Z,9.74
2022-10-06T20:57:35.313Z,9.70
2022-10-06T21:00:22.673Z,9.60
2022-10-06T21:03:08.780Z,9.63
2022-10-06T21:05:54.221Z,9.67
2022-10-06T21:08:39.177Z,9.68
2022-10-06T21:11:25.476Z,9.54
2022-10-06T21:14:12.016Z,9.55
2022-10-06T21:16:57.151Z,9.59
2022-10-06T21:19:42.239Z,9.63
2022-10-06T21:22:31.296Z,9.64
2022-10-06T21:25:16.451Z,9.54
2022-10-06T21:28:02.930Z,9.47
2022-10-06T21:30:48.352Z,9.41
2022-10-06T21:33:40.337Z,9.45
2022-10-06T21:36:27.548Z,9.39
2022-10-06T21:39:13.352Z,9.35
2022-10-06T21:41:58.372Z,9.29
2022-10-06T21:44:43.369Z,9.26
2022-10-06T21:47:28.372Z,9.19
2022-10-06T21:50:13.745Z,9.20
2022-10-06T21:52:58.573Z,9.21
2022-10-06T21:55:43.431Z,9.25
2022-10-06T21:58:28.612Z,9.16
2022-10-06T22:01:13.657Z,9.12
2022-10-06T22:04:02.867Z,9.09
2022-10-06T22:06:50.779Z,9.11
2022-10-06T22:09:35.532Z,9.15
2022-10-06T22:12:20.439Z,9.10
2022-10-06T22:15:05.966Z,9.01
2022-10-06T22:17:50.783Z,8.99
2022-10-06T22:20:35.944Z,8.95
2022-10-06T22:23:20.885Z,8.92
2022-10-06T22:26:07.347Z,8.83
2022-10-06T22:28:54.324Z,8.83
2022-10-06T22:31:41.411Z,8.76
2022-10-06T22:34:27.154Z,8.35
2022-10-06T22:37:12.119Z,8.42
2022-10-06T22:39:56.924Z,8.58
2022-10-06T22:42:41.763Z,8.67
2022-10-06T22:45:26.479Z,8.63
2022-10-06T22:48:11.495Z,8.61
2022-10-06T22:50:56.280Z,8.62
2022-10-06T22:53:41.319Z,8.53
2022-10-06T22:56:27.252Z,8.47
2022-10-06T22:59:12.186Z,8.38
2022-10-06T23:01:58.520Z,8.32
2022-10-06T23:04:43.656Z,8.37
2022-10-06T23:07:28.464Z,8.32
2022-10-06T23:10:13.348Z,8.31
2022-10-06T23:12:59.230Z,8.43
2022-10-06T23:15:44.284Z,8.45
2022-10-06T23:18:29.217Z,8.23
2022-10-06T23:21:21.840Z,8.22
2022-10-06T23:24:08.194Z,8.29
2022-10-06T23:26:52.972Z,8.28
2022-10-06T23:29:37.895Z,8.32
2022-10-06T23:32:22.843Z,8.30
2022-10-06T23:35:09.451Z,8.32
2022-10-06T23:37:54.283Z,8.24
2022-10-06T23:40:39.213Z,8.20
2022-10-06T23:43:24.703Z,8.28
2022-10-06T23:46:09.610Z,8.19
2022-10-06T23:48:54.960Z,8.03
2022-10-06T23:51:39.831Z,7.97
2022-10-06T23:54:24.668Z,8.05
2022-10-06T23:57:09.698Z,8.16
2022-10-06T23:59:54.604Z,8.14
